Time;durP1;ratioP1;P1;durP2;ratioP2;P2;SDS_P1;SDS_P2;PMS_P1;PMS_P2;Temp;Humidity;BMP_temperature;BMP_pressure;BME280_temperature;BME280_humidity;BME280_pressure;Samples;Min_cycle;Max_cycle;Signal;HPM_P1;HPM_P2
2023/02/03 00:01:01;;;;;;;15.05;3.28;;;;;;;7.12;100.00;102227.19;5073531;28;20051;-60
2023/02/03 00:03:29;;;;;;;19.40;3.15;;;;;;;7.13;100.00;102235.88;5070109;28;20067;-60
2023/02/03 00:05:57;;;;;;;11.45;2.80;;;;;;;7.12;100.00;102232.41;5070044;28;20459;-61
2023/02/03 00:08:25;;;;;;;13.73;3.08;;;;;;;7.11;100.00;102233.31;5069870;28;20048;-61
2023/02/03 00:10:55;;;;;;;12.70;3.33;;;;;;;7.09;100.00;102241.19;5071437;28;20079;-60
2023/02/03 00:13:24;;;;;;;13.93;3.42;;;;;;;7.12;100.00;102245.50;5070882;28;20764;-60
2023/02/03 00:15:52;;;;;;;13.27;3.03;;;;;;;7.12;100.00;102250.72;5069592;28;20052;-60
2023/02/03 00:18:20;;;;;;;12.80;2.85;;;;;;;7.10;100.00;102262.97;5070660;28;20124;-60
2023/02/03 00:20:49;;;;;;;14.48;3.22;;;;;;;7.12;100.00;102266.44;5071603;28;20044;-61
2023/02/03 00:23:17;;;;;;;15.98;2.88;;;;;;;7.10;100.00;102261.25;5069022;28;20445;-61
2023/02/03 00:25:45;;;;;;;14.05;2.70;;;;;;;7.11;100.00;102265.56;5070891;28;20574;-61
2023/02/03 00:28:14;;;;;;;17.27;4.28;;;;;;;7.14;100.00;102266.38;5072684;28;20044;-60
2023/02/03 00:30:42;;;;;;;17.73;2.90;;;;;;;7.15;100.00;102268.94;5073219;28;20407;-61
2023/02/03 00:33:10;;;;;;;13.73;2.42;;;;;;;7.16;100.00;102268.06;5071835;28;20040;-61
2023/02/03 00:35:39;;;;;;;11.35;2.70;;;;;;;7.17;100.00;102268.91;5068812;28;20434;-61
2023/02/03 00:38:07;;;;;;;14.27;3.00;;;;;;;7.15;100.00;102281.19;5070676;28;20045;-61
2023/02/03 00:40:35;;;;;;;11.10;3.08;;;;;;;7.16;100.00;102283.75;5070175;28;20045;-60
2023/02/03 00:43:03;;;;;;;18.23;3.22;;;;;;;7.19;100.00;102288.91;5068900;28;20575;-61
2023/02/03 00:45:32;;;;;;;14.38;2.72;;;;;;;7.22;100.00;102285.34;5072073;28;20053;-61
2023/02/03 00:48:01;;;;;;;15.02;2.65;;;;;;;7.20;100.00;102287.13;5069404;28;20052;-61
2023/02/03 00:50:29;;;;;;;8.88;2.33;;;;;;;7.21;100.00;102287.09;5069099;28;20461;-60
2023/02/03 00:52:57;;;;;;;16.63;2.85;;;;;;;7.21;100.00;102284.50;5069089;28;20045;-60
2023/02/03 00:55:27;;;;;;;12.93;3.45;;;;;;;7.25;100.00;102293.97;5068016;28;20115;-61
2023/02/03 00:57:55;;;;;;;13.15;3.03;;;;;;;7.31;100.00;102290.31;5072138;28;20385;-61
2023/02/03 01:00:26;;;;;;;14.00;3.30;;;;;;;7.31;100.00;102282.47;5072782;28;20076;-61
2023/02/03 01:02:56;;;;;;;12.90;3.28;;;;;;;7.28;100.00;102279.94;5054339;28;20103;-62
2023/02/03 01:05:24;;;;;;;16.70;2.85;;;;;;;7.26;100.00;102273.88;5070142;28;20071;-62
2023/02/03 01:07:52;;;;;;;13.43;2.88;;;;;;;7.26;100.00;102294.81;5069376;28;20665;-62
2023/02/03 01:10:20;;;;;;;14.23;3.25;;;;;;;7.28;100.00;102287.78;5068635;28;20139;-62
2023/02/03 01:12:48;;;;;;;10.43;2.92;;;;;;;7.27;100.00;102273.00;5071330;28;20044;-60
2023/02/03 01:15:17;;;;;;;16.10;3.42;;;;;;;7.31;100.00;102278.97;5068842;28;20070;-60
2023/02/03 01:17:45;;;;;;;8.15;2.42;;;;;;;7.30;100.00;102272.88;5070491;28;20503;-60
2023/02/03 01:20:15;;;;;;;13.27;3.30;;;;;;;7.36;100.00;102277.09;5072372;28;20488;-60
2023/02/03 01:22:44;;;;;;;15.23;3.30;;;;;;;7.35;100.00;102268.41;5068698;28;20049;-61
2023/02/03 01:25:12;;;;;;;13.30;3.25;;;;;;;7.33;100.00;102261.47;5067809;28;20058;-61
2023/02/03 01:27:40;;;;;;;12.65;3.15;;;;;;;7.38;100.00;102251.75;5049776;28;20135;-61
2023/02/03 01:30:09;;;;;;;15.82;3.83;;;;;;;7.34;100.00;102260.59;5069068;28;20047;-61
2023/02/03 01:32:37;;;;;;;13.65;3.15;;;;;;;7.32;100.00;102262.38;5071008;28;20048;-61
2023/02/03 01:35:06;;;;;;;17.67;3.40;;;;;;;7.31;100.00;102250.19;5054108;28;20510;-61
2023/02/03 01:37:35;;;;;;;15.48;2.92;;;;;;;7.30;100.00;102244.09;5072403;28;20083;-61
2023/02/03 01:40:04;;;;;;;8.75;2.63;;;;;;;7.30;100.00;102243.25;5072304;28;20049;-61
2023/02/03 01:42:33;;;;;;;11.57;2.90;;;;;;;7.30;100.00;102253.72;5070340;28;20040;-61
2023/02/03 01:45:01;;;;;;;14.98;2.63;;;;;;;7.31;100.00;102237.97;5068889;28;20198;-61
2023/02/03 01:47:33;;;;;;;12.63;2.70;;;;;;;7.29;100.00;102229.28;5068020;28;20044;-61
2023/02/03 01:50:14;;;;;;;16.13;3.10;;;;;;;7.28;100.00;102225.00;5072188;28;20140;-61
2023/02/03 01:52:47;;;;;;;11.82;2.85;;;;;;;7.28;100.00;102215.38;5072485;28;20048;-61
2023/02/03 01:55:19;;;;;;;11.43;2.65;;;;;;;7.27;100.00;102218.88;5070194;28;20802;-60
2023/02/03 01:57:52;;;;;;;10.55;2.47;;;;;;;7.29;100.00;102226.69;5067779;28;20072;-61
2023/02/03 02:00:20;;;;;;;12.45;3.05;;;;;;;7.27;100.00;102229.34;5070856;28;20036;-60
2023/02/03 02:02:49;;;;;;;10.80;2.85;;;;;;;7.30;100.00;102235.41;5070978;28;20395;-60
2023/02/03 02:05:25;;;;;;;11.18;2.90;;;;;;;7.31;100.00;102232.75;5068205;28;20060;-61
2023/02/03 02:07:56;;;;;;;12.10;3.05;;;;;;;7.32;100.00;102237.09;5070526;28;20045;-62
2023/02/03 02:10:24;;;;;;;15.88;2.85;;;;;;;7.31;100.00;102229.25;5071814;28;20090;-62
2023/02/03 02:12:58;;;;;;;9.05;2.55;;;;;;;7.34;100.00;102216.09;5067884;28;20080;-62
2023/02/03 02:15:35;;;;;;;11.63;2.88;;;;;;;7.35;100.00;102205.56;5072103;28;20496;-62
2023/02/03 02:18:15;;;;;;;18.17;3.13;;;;;;;7.33;100.00;102198.66;5074035;28;20577;-62
2023/02/03 02:21:24;;;;;;;12.65;3.13;;;;;;;7.36;100.00;102199.44;5071673;28;20451;-62
2023/02/03 02:24:25;;;;;;;12.82;2.92;;;;;;;7.37;100.00;102205.53;5044857;28;20418;-62
2023/02/03 02:27:07;;;;;;;11.45;2.67;;;;;;;7.34;100.00;102205.63;5075682;28;20049;-62
2023/02/03 02:30:12;;;;;;;12.32;2.92;;;;;;;7.30;100.00;102201.38;5074630;28;20060;-62
2023/02/03 02:32:54;;;;;;;12.55;2.58;;;;;;;7.29;100.00;102208.34;5071230;28;20475;-62
2023/02/03 02:35:36;;;;;;;8.97;2.90;;;;;;;7.40;100.00;102218.50;5074676;28;20052;-62
2023/02/03 02:38:11;;;;;;;14.30;2.60;;;;;;;7.36;100.00;102233.47;5075261;28;20453;-62
2023/02/03 02:40:49;;;;;;;16.17;3.67;;;;;;;7.37;100.00;102236.94;5074952;28;20462;-62
2023/02/03 02:43:21;;;;;;;13.93;2.85;;;;;;;7.36;100.00;102229.97;5072086;28;20048;-62
2023/02/03 02:45:52;;;;;;;9.98;2.53;;;;;;;7.36;100.00;102232.59;5056036;28;20053;-62
2023/02/03 02:48:28;;;;;;;9.07;2.40;;;;;;;7.33;100.00;102224.84;5071791;28;20076;-62
2023/02/03 02:50:59;;;;;;;12.80;3.10;;;;;;;7.33;100.00;102222.22;5060148;28;20048;-62
2023/02/03 02:53:33;;;;;;;11.43;2.22;;;;;;;7.37;100.00;102216.00;5072885;28;20423;-62
2023/02/03 02:56:05;;;;;;;14.73;2.80;;;;;;;7.34;100.00;102210.84;5069927;28;20063;-62
2023/02/03 02:58:37;;;;;;;14.80;3.03;;;;;;;7.31;100.00;102211.81;5070480;28;20037;-62
2023/02/03 03:01:08;;;;;;;15.68;2.58;;;;;;;7.33;100.00;102190.81;5070672;28;20159;-62
2023/02/03 03:03:39;;;;;;;13.52;3.05;;;;;;;7.32;100.00;102178.63;5069757;28;20052;-62
2023/02/03 03:06:12;;;;;;;7.45;2.15;;;;;;;7.33;100.00;102175.97;5071630;28;20155;-62
2023/02/03 03:08:47;;;;;;;12.23;2.85;;;;;;;7.37;100.00;102161.03;5074348;28;20055;-62
2023/02/03 03:11:16;;;;;;;12.02;2.70;;;;;;;7.35;100.00;102175.91;5074892;28;20044;-62
2023/02/03 03:13:50;;;;;;;11.18;2.28;;;;;;;7.33;100.00;102160.25;5074688;28;20445;-62
2023/02/03 03:16:24;;;;;;;9.25;2.08;;;;;;;7.32;100.00;102184.75;5072309;28;20045;-62
2023/02/03 03:18:58;;;;;;;11.70;2.42;;;;;;;7.35;100.00;102176.78;5071575;28;20058;-62
2023/02/03 03:21:30;;;;;;;11.70;2.35;;;;;;;7.39;100.00;102191.50;5070618;28;20048;-62
2023/02/03 03:24:02;;;;;;;11.73;2.50;;;;;;;7.46;100.00;102194.78;5073399;28;20071;-62
2023/02/03 03:26:35;;;;;;;12.73;2.40;;;;;;;7.42;100.00;102201.00;5069425;28;20051;-62
2023/02/03 03:29:10;;;;;;;10.15;1.98;;;;;;;7.45;100.00;102195.69;5070959;28;20056;-62
2023/02/03 03:31:39;;;;;;;10.98;2.20;;;;;;;7.39;100.00;102198.47;5068817;28;20051;-62
2023/02/03 03:34:12;;;;;;;9.90;2.15;;;;;;;7.40;100.00;102189.72;5070921;28;20056;-62
2023/02/03 03:36:44;;;;;;;10.82;2.25;;;;;;;7.39;100.00;102188.88;5070288;28;20495;-62
2023/02/03 03:39:21;;;;;;;14.60;3.00;;;;;;;7.36;100.00;102188.97;5070043;28;20037;-62
2023/02/03 03:41:57;;;;;;;11.73;2.50;;;;;;;7.40;100.00;102202.81;5069471;28;20460;-62
2023/02/03 03:44:30;;;;;;;9.00;2.15;;;;;;;7.43;100.00;102207.94;5070247;28;20052;-62
2023/02/03 03:47:03;;;;;;;;;;;;;;;7.44;100.00;102209.66;5074722;28;20114;-62
2023/02/03 03:49:34;;;;;;;;;;;;;;;7.40;100.00;102200.19;5071316;28;20020;-62
2023/02/03 03:52:07;;;;;;;12.57;3.20;;;;;;;7.43;100.00;102215.78;5070515;28;19931;-62
2023/02/03 03:54:37;;;;;;;10.65;2.53;;;;;;;7.41;100.00;102204.53;5069600;28;20044;-62
2023/02/03 03:57:13;;;;;;;11.55;2.95;;;;;;;7.43;100.00;102211.44;5069719;28;20094;-62
2023/02/03 03:59:46;;;;;;;11.15;2.60;;;;;;;7.42;100.00;102214.94;5073375;28;20045;-62
2023/02/03 04:02:17;;;;;;;12.63;3.33;;;;;;;7.41;100.00;102205.38;5053286;28;20057;-62
2023/02/03 04:04:48;;;;;;;9.18;2.85;;;;;;;7.43;100.00;102213.19;5051908;28;20060;-62
2023/02/03 04:07:16;;;;;;;13.85;2.58;;;;;;;7.44;100.00;102214.91;5069829;28;20059;-62
2023/02/03 04:09:44;;;;;;;10.35;2.78;;;;;;;7.45;100.00;102238.41;5071496;28;20139;-62
2023/02/03 04:12:20;;;;;;;15.40;2.50;;;;;;;7.59;100.00;102218.81;5069166;28;20057;-62
2023/02/03 04:14:48;;;;;;;9.63;2.60;;;;;;;7.52;100.00;102218.13;5071436;28;20046;-62
2023/02/03 04:17:18;;;;;;;13.45;3.05;;;;;;;7.52;100.00;102222.53;5070826;28;20058;-62
2023/02/03 04:19:49;;;;;;;12.27;2.10;;;;;;;7.56;100.00;102217.16;5069847;28;20052;-62
2023/02/03 04:22:18;;;;;;;12.55;2.83;;;;;;;7.57;100.00;102213.63;5069542;28;20060;-62
2023/02/03 04:24:46;;;;;;;8.57;2.42;;;;;;;7.61;100.00;102211.78;5069077;28;20065;-61
2023/02/03 04:27:14;;;;;;;12.82;2.70;;;;;;;7.53;100.00;102200.69;5068438;28;20120;-61
2023/02/03 04:29:42;;;;;;;14.27;2.90;;;;;;;7.54;100.00;102200.63;5068542;28;20454;-60
2023/02/03 04:32:13;;;;;;;10.48;2.35;;;;;;;7.52;100.00;102217.28;5068870;28;20456;-61
2023/02/03 04:34:41;;;;;;;12.70;2.63;;;;;;;7.57;100.00;102208.38;5069123;28;20507;-60
2023/02/03 04:37:10;;;;;;;10.40;2.83;;;;;;;7.56;100.00;102200.59;5070740;28;20048;-60
2023/02/03 04:39:39;;;;;;;11.40;2.15;;;;;;;7.59;100.00;102196.13;5068974;28;20044;-61
2023/02/03 04:42:07;;;;;;;11.60;2.40;;;;;;;7.59;100.00;102196.13;5052686;28;20480;-61
2023/02/03 04:44:35;;;;;;;12.75;2.05;;;;;;;7.62;100.00;102192.53;5069911;28;20368;-61
2023/02/03 04:47:03;;;;;;;10.27;2.25;;;;;;;7.61;100.00;102191.69;5067801;28;20499;-60
2023/02/03 04:49:31;;;;;;;11.35;2.10;;;;;;;7.63;100.00;102190.78;5072728;28;20040;-61
2023/02/03 04:51:59;;;;;;;8.98;2.22;;;;;;;7.60;100.00;102189.13;5071152;28;20591;-61
2023/02/03 04:54:28;;;;;;;13.63;2.50;;;;;;;7.65;100.00;102187.22;5069803;28;20387;-60
2023/02/03 04:56:56;;;;;;;11.00;2.28;;;;;;;7.70;100.00;102179.19;5067961;28;20101;-61
2023/02/03 04:59:27;;;;;;;8.85;2.03;;;;;;;7.75;100.00;102177.31;5068569;28;20533;-61
2023/02/03 05:01:55;;;;;;;11.73;1.92;;;;;;;7.72;100.00;102177.41;5068566;28;20159;-60
2023/02/03 05:04:23;;;;;;;10.80;2.20;;;;;;;7.69;100.00;102182.72;5060677;28;20442;-60
2023/02/03 05:06:52;;;;;;;12.70;2.22;;;;;;;7.68;100.00;102181.88;5071020;28;20052;-62
2023/02/03 05:09:20;;;;;;;10.77;1.75;;;;;;;7.70;100.00;102177.47;5072540;28;20091;-60
2023/02/03 05:11:49;;;;;;;9.18;2.17;;;;;;;7.69;100.00;102180.09;5068284;28;20446;-61
2023/02/03 05:14:18;;;;;;;7.85;2.00;;;;;;;7.74;100.00;102183.44;5068856;28;20429;-61
2023/02/03 05:16:46;;;;;;;9.82;1.88;;;;;;;7.76;100.00;102181.66;5069862;28;20045;-60
2023/02/03 05:19:14;;;;;;;14.15;2.38;;;;;;;7.72;100.00;102180.88;5070439;28;20086;-61
2023/02/03 05:21:42;;;;;;;11.73;2.45;;;;;;;7.75;100.00;102170.28;5068924;28;20044;-61
2023/02/03 05:24:10;;;;;;;10.30;1.85;;;;;;;7.76;100.00;102176.41;5071493;28;20072;-60
2023/02/03 05:26:38;;;;;;;12.70;1.88;;;;;;;7.80;100.00;102178.03;5072638;28;20072;-61
2023/02/03 05:29:08;;;;;;;9.85;1.98;;;;;;;7.79;100.00;102178.91;5072778;28;20063;-61
2023/02/03 05:31:37;;;;;;;11.18;2.15;;;;;;;7.80;100.00;102191.13;5052516;28;20048;-61
2023/02/03 05:34:05;;;;;;;8.93;2.00;;;;;;;7.78;100.00;102187.66;5068945;28;20045;-61
2023/02/03 05:36:33;;;;;;;10.98;2.40;;;;;;;7.79;100.00;102192.00;5071481;28;20053;-61
2023/02/03 05:39:01;;;;;;;9.40;1.88;;;;;;;7.77;100.00;102181.59;5072258;28;20045;-61
2023/02/03 05:44:16;;;;;;;12.65;1.98;;;;;;;7.83;100.00;102185.78;5068339;28;20056;-61
2023/02/03 05:46:44;;;;;;;9.10;1.60;;;;;;;7.82;100.00;102176.19;5068349;28;20072;-61
2023/02/03 05:49:12;;;;;;;8.82;1.88;;;;;;;7.84;100.00;102187.50;5074484;28;20063;-61
2023/02/03 05:51:41;;;;;;;15.60;1.98;;;;;;;7.83;100.00;102183.16;5072681;28;20045;-61
2023/02/03 05:54:09;;;;;;;14.48;2.45;;;;;;;7.82;100.00;102177.97;5071788;28;20044;-62
2023/02/03 05:56:38;;;;;;;8.68;2.28;;;;;;;7.83;100.00;102174.44;5073067;28;20574;-61
2023/02/03 05:59:06;;;;;;;8.82;2.03;;;;;;;7.84;100.00;102179.63;5073770;28;20052;-61
2023/02/03 06:01:36;;;;;;;11.63;1.88;;;;;;;7.84;100.00;102169.16;5072362;28;20053;-61
2023/02/03 06:04:05;;;;;;;8.90;2.00;;;;;;;7.84;100.00;102168.28;5054311;28;20048;-61
2023/02/03 06:06:33;;;;;;;11.25;2.03;;;;;;;7.85;100.00;102188.34;5072545;28;20051;-61
2023/02/03 06:09:03;;;;;;;12.00;2.47;;;;;;;7.83;100.00;102188.38;5073670;28;20052;-61
2023/02/03 06:11:32;;;;;;;10.13;2.10;;;;;;;7.82;100.00;102180.59;5070809;28;20044;-62
2023/02/03 06:14:00;;;;;;;9.55;2.00;;;;;;;7.86;100.00;102193.53;5074675;28;20436;-61
2023/02/03 06:16:29;;;;;;;11.23;2.25;;;;;;;7.83;100.00;102185.78;5075820;28;20040;-61
2023/02/03 06:18:59;;;;;;;13.13;2.33;;;;;;;7.86;100.00;102190.91;5075695;28;20094;-61
2023/02/03 06:21:28;;;;;;;11.88;3.33;;;;;;;7.81;100.00;102195.41;5073752;28;20048;-61
2023/02/03 06:23:56;;;;;;;9.20;1.95;;;;;;;7.79;100.00;102189.38;5071150;28;20044;-61
2023/02/03 06:26:25;;;;;;;9.88;2.10;;;;;;;7.85;100.00;102190.94;5074448;28;20526;-61
2023/02/03 06:28:53;;;;;;;17.58;2.40;;;;;;;7.79;100.00;102185.00;5075806;28;20048;-61
2023/02/03 06:31:21;;;;;;;11.88;2.90;;;;;;;7.81;100.00;102184.94;5075657;28;20055;-61
2023/02/03 06:33:49;;;;;;;13.77;2.05;;;;;;;7.78;100.00;102182.44;5075355;28;20109;-61
2023/02/03 06:36:18;;;;;;;6.15;1.83;;;;;;;7.84;100.00;102186.63;5075658;28;20060;-61
2023/02/03 06:38:46;;;;;;;15.43;2.45;;;;;;;7.82;100.00;102188.44;5072038;28;20057;-61
2023/02/03 06:41:15;;;;;;;14.57;2.67;;;;;;;7.79;100.00;102202.50;5070577;28;20040;-61
2023/02/03 06:43:43;;;;;;;8.93;2.03;;;;;;;7.78;100.00;102211.25;5074670;28;20044;-61
2023/02/03 06:46:11;;;;;;;12.35;2.30;;;;;;;7.79;100.00;102212.97;5075372;28;20368;-61
2023/02/03 06:48:39;;;;;;;11.40;2.50;;;;;;;7.81;100.00;102218.16;5075321;28;20044;-61
2023/02/03 06:51:07;;;;;;;8.88;2.80;;;;;;;7.79;100.00;102218.19;5075166;28;20062;-61
2023/02/03 06:53:37;;;;;;;13.25;2.40;;;;;;;7.80;100.00;102222.53;5075158;28;20132;-61
2023/02/03 06:56:05;;;;;;;11.90;2.75;;;;;;;7.77;100.00;102217.38;5070824;28;20155;-61
2023/02/03 06:58:33;;;;;;;10.75;2.40;;;;;;;7.76;100.00;102221.78;5053840;28;20521;-61
2023/02/03 07:01:01;;;;;;;10.73;2.33;;;;;;;7.80;100.00;102222.53;5074180;28;20538;-61
2023/02/03 07:03:30;;;;;;;14.25;2.80;;;;;;;7.80;100.00;102225.16;5072578;28;20048;-61
2023/02/03 07:05:58;;;;;;;13.40;3.25;;;;;;;7.85;100.00;102240.72;5071122;28;20072;-61
2023/02/03 07:08:26;;;;;;;13.07;2.95;;;;;;;7.81;100.00;102229.47;5071694;28;20056;-61
2023/02/03 07:10:56;;;;;;;11.23;2.63;;;;;;;7.78;100.00;102230.44;5070299;28;20571;-61
2023/02/03 07:13:24;;;;;;;13.43;2.90;;;;;;;7.79;100.00;102237.38;5074856;28;20036;-61
2023/02/03 07:15:52;;;;;;;14.73;2.53;;;;;;;7.76;100.00;102224.38;5073024;28;20091;-61
2023/02/03 07:18:23;;;;;;;11.32;2.95;;;;;;;7.79;100.00;102236.53;5071077;28;20048;-61
2023/02/03 07:21:11;;;;;;;13.07;2.90;;;;;;;7.79;100.00;102240.00;5073856;28;20072;-61
2023/02/03 07:23:42;;;;;;;12.05;2.75;;;;;;;7.77;100.00;102239.22;5070083;28;20113;-61
2023/02/03 07:26:11;;;;;;;15.40;2.92;;;;;;;7.77;100.00;102249.69;5068655;28;20459;-61
2023/02/03 07:28:40;;;;;;;13.60;2.88;;;;;;;7.76;100.00;102244.50;5069985;28;20398;-61
2023/02/03 07:31:09;;;;;;;12.25;3.15;;;;;;;7.75;100.00;102242.78;5071863;28;20052;-47
2023/02/03 07:33:38;;;;;;;11.88;2.63;;;;;;;7.73;100.00;102252.44;5073961;28;20369;-60
2023/02/03 07:36:08;;;;;;;14.15;2.50;;;;;;;7.71;100.00;102233.31;5074208;28;20479;-48
2023/02/03 07:38:37;;;;;;;12.85;2.70;;;;;;;7.74;100.00;102222.72;5072549;28;20044;-51
2023/02/03 07:41:06;;;;;;;11.15;2.47;;;;;;;7.74;100.00;102233.19;5073646;28;20064;-61
2023/02/03 07:43:35;;;;;;;12.27;2.72;;;;;;;7.79;100.00;102226.06;5073587;28;20521;-61
2023/02/03 07:46:04;;;;;;;8.13;2.20;;;;;;;7.77;100.00;102233.97;5073362;28;20449;-61
2023/02/03 07:48:32;;;;;;;12.35;3.03;;;;;;;7.77;100.00;102233.09;5071704;28;20049;-61
2023/02/03 07:51:02;;;;;;;11.30;2.50;;;;;;;7.74;100.00;102234.06;5069631;28;20098;-61
2023/02/03 07:53:30;;;;;;;12.85;2.22;;;;;;;7.78;100.00;102232.19;5071510;28;20041;-61
2023/02/03 07:56:00;;;;;;;15.73;3.15;;;;;;;7.76;100.00;102236.63;5072554;28;20082;-61
2023/02/03 07:58:29;;;;;;;12.10;2.80;;;;;;;7.78;100.00;102247.91;5053663;28;20053;-61
2023/02/03 08:00:59;;;;;;;13.02;2.80;;;;;;;7.77;100.00;102256.66;5064062;28;20542;-61
2023/02/03 08:03:27;;;;;;;11.60;2.92;;;;;;;7.81;100.00;102268.75;5070541;28;20029;-61
2023/02/03 08:05:55;;;;;;;10.60;2.42;;;;;;;7.77;100.00;102260.16;5073282;28;20072;-61
2023/02/03 08:08:23;;;;;;;12.57;2.53;;;;;;;7.77;100.00;102265.41;5071317;28;20503;-61
2023/02/03 08:10:51;;;;;;;14.63;3.63;;;;;;;7.79;100.00;102262.72;5067428;28;20134;-61
2023/02/03 08:13:19;;;;;;;12.23;2.85;;;;;;;7.83;100.00;102263.50;5053942;28;20048;-61
2023/02/03 08:15:47;;;;;;;13.88;3.17;;;;;;;7.81;100.00;102266.13;5072948;28;20135;-61
2023/02/03 08:18:17;;;;;;;11.73;2.50;;;;;;;7.79;100.00;102274.06;5053545;28;20091;-61
2023/02/03 08:20:46;;;;;;;12.82;3.42;;;;;;;7.78;100.00;102279.34;5068855;28;20048;-61
2023/02/03 08:23:15;;;;;;;10.52;2.08;;;;;;;7.79;100.00;102279.28;5069066;28;20117;-61
2023/02/03 08:25:43;;;;;;;14.98;4.78;;;;;;;7.80;100.00;102285.41;5068131;28;20052;-61
2023/02/03 08:28:11;;;;;;;12.55;3.80;;;;;;;7.83;100.00;102290.53;5068930;28;20045;-61
2023/02/03 08:30:39;;;;;;;13.60;2.55;;;;;;;7.88;100.00;102279.91;5069369;28;20155;-61
2023/02/03 08:33:07;;;;;;;10.15;2.80;;;;;;;7.85;100.00;102286.09;5068652;28;20051;-61
2023/02/03 08:35:38;;;;;;;13.27;2.70;;;;;;;7.91;100.00;102291.16;5068578;28;20522;-61
2023/02/03 08:38:07;;;;;;;10.35;2.70;;;;;;;7.90;100.00;102291.22;5054300;28;20048;-61
2023/02/03 08:40:35;;;;;;;14.93;3.25;;;;;;;7.90;100.00;102292.06;5067987;28;20099;-61
2023/02/03 08:43:06;;;;;;;11.57;2.72;;;;;;;7.92;100.00;102281.53;5070411;28;20045;-61
2023/02/03 08:45:34;;;;;;;14.43;3.03;;;;;;;7.92;100.00;102273.66;5070789;28;20457;-61
2023/02/03 08:48:03;;;;;;;12.23;2.67;;;;;;;7.94;100.00;102279.72;5069519;28;20053;-62
2023/02/03 08:50:31;;;;;;;14.45;3.00;;;;;;;7.91;100.00;102283.31;5067410;28;20412;-61
2023/02/03 08:53:00;;;;;;;8.43;1.80;;;;;;;7.89;100.00;102285.09;5072615;28;20041;-61
2023/02/03 08:55:29;;;;;;;10.20;3.10;;;;;;;7.91;100.00;102293.78;5072845;28;20044;-61
2023/02/03 08:57:57;;;;;;;11.25;2.47;;;;;;;7.95;100.00;102284.91;5072719;28;20064;-61
2023/02/03 09:00:25;;;;;;;9.77;2.70;;;;;;;7.93;100.00;102296.34;5072705;28;20071;-61
2023/02/03 09:02:54;;;;;;;11.50;2.75;;;;;;;7.98;100.00;102281.34;5069754;28;20051;-61
2023/02/03 09:05:22;;;;;;;11.98;2.70;;;;;;;8.03;100.00;102289.94;5068681;28;20048;-61
2023/02/03 09:07:50;;;;;;;11.55;2.45;;;;;;;8.04;100.00;102307.34;5068878;28;20070;-61
2023/02/03 09:10:22;;;;;;;8.60;2.53;;;;;;;8.05;100.00;102297.75;5068024;28;20055;-61
2023/02/03 09:12:50;;;;;;;13.15;2.22;;;;;;;8.10;100.00;102298.47;5068260;28;20401;-61
2023/02/03 09:15:19;;;;;;;12.95;2.58;;;;;;;8.11;100.00;102294.91;5068906;28;20048;-61
2023/02/03 09:17:47;;;;;;;11.27;2.40;;;;;;;8.17;100.00;102293.88;5066894;28;20071;-61
2023/02/03 09:20:15;;;;;;;12.95;2.70;;;;;;;8.16;100.00;102293.00;5071959;28;20448;-61
2023/02/03 09:22:43;;;;;;;7.30;2.28;;;;;;;8.18;100.00;102291.22;5068419;28;20056;-61
2023/02/03 09:25:12;;;;;;;11.10;2.70;;;;;;;8.19;100.00;102298.13;5069383;28;20044;-61
2023/02/03 09:27:42;;;;;;;9.63;2.30;;;;;;;8.22;100.00;102291.94;5072072;28;20044;-61
2023/02/03 09:30:12;;;;;;;11.05;2.58;;;;;;;8.28;100.00;102294.38;5066238;28;20583;-61
2023/02/03 09:32:40;;;;;;;9.68;2.42;;;;;;;8.31;100.00;102296.06;5068090;28;20045;-61
2023/02/03 09:35:08;;;;;;;9.65;2.17;;;;;;;8.35;100.00;102292.44;5069300;28;20037;-61
2023/02/03 09:37:36;;;;;;;12.05;3.17;;;;;;;8.31;100.00;102299.53;5072404;28;20045;-61
2023/02/03 09:40:05;;;;;;;10.85;2.58;;;;;;;8.33;100.00;102308.22;5071048;28;20443;-61
2023/02/03 09:42:56;;;;;;;9.82;2.95;;;;;;;8.37;100.00;102307.19;5067112;28;20546;-61
2023/02/03 09:45:26;;;;;;;7.60;2.20;;;;;;;8.38;100.00;102302.81;5068602;28;20442;-61
2023/02/03 09:47:59;;;;;;;11.07;2.35;;;;;;;8.47;100.00;102305.16;5068271;28;20159;-61
2023/02/03 09:50:29;;;;;;;;;;;;;;;8.47;100.00;102307.78;5071402;28;20391;-61
2023/02/03 09:53:01;;;;;;;12.32;2.35;;;;;;;8.48;100.00;102309.50;5072402;28;19920;-61
2023/02/03 09:55:35;;;;;;;10.15;2.40;;;;;;;8.51;100.00;102313.75;5072341;28;20078;-61
2023/02/03 09:58:11;;;;;;;11.80;2.40;;;;;;;8.50;100.00;102322.56;5072238;28;20044;-61
2023/02/03 10:00:43;;;;;;;14.85;2.70;;;;;;;8.51;100.00;102321.63;5070257;28;20052;-61
2023/02/03 10:03:22;;;;;;;8.00;2.05;;;;;;;8.53;100.00;102330.31;5068018;28;20376;-61
2023/02/03 10:06:03;;;;;;;8.40;2.20;;;;;;;8.53;100.00;102320.69;5071124;28;20127;-61
2023/02/03 10:08:51;;;;;;;7.47;2.30;;;;;;;8.53;100.00;102318.06;5068268;28;20407;-61
2023/02/03 10:11:34;;;;;;;12.05;2.58;;;;;;;8.56;100.00;102317.09;5067239;28;20052;-61
2023/02/03 10:14:12;;;;;;;;;;;;;;;8.60;100.00;102316.97;5071967;28;20054;-61
2023/02/03 10:16:56;;;;;;;10.45;2.15;;;;;;;8.66;100.00;102333.38;5071639;28;20410;-61
2023/02/03 10:19:33;;;;;;;13.80;2.97;;;;;;;8.67;100.00;102329.84;5071351;28;20135;-61
2023/02/03 10:22:04;;;;;;;11.02;2.53;;;;;;;8.68;100.00;102321.94;5071916;28;20040;-61
2023/02/03 10:24:40;;;;;;;8.20;2.42;;;;;;;8.74;100.00;102327.00;5071314;28;20072;-61
2023/02/03 10:27:16;;;;;;;11.15;2.80;;;;;;;8.72;100.00;102322.69;5067241;28;20570;-49
2023/02/03 10:29:54;;;;;;;6.13;1.95;;;;;;;8.72;100.00;102327.94;5066871;28;20052;-51
2023/02/03 10:32:25;;;;;;;11.85;2.53;;;;;;;8.76;100.00;102324.31;5067544;28;20123;-52
2023/02/03 10:34:54;;;;;;;8.32;1.98;;;;;;;8.77;100.00;102332.13;5071892;28;20048;-52
2023/02/03 10:37:29;;;;;;;9.68;2.08;;;;;;;8.83;100.00;102344.16;5075290;28;20455;-51
2023/02/03 10:40:00;;;;;;;9.35;2.40;;;;;;;8.84;100.00;102343.25;5073658;28;20460;-52
2023/02/03 10:43:46;;;;;;;11.77;2.63;;;;;;;8.86;100.00;102344.09;5070159;28;20056;-52
2023/02/03 10:45:20;;;;;;;9.05;2.10;;;;;;;8.89;100.00;102346.59;5071056;28;20045;-52
2023/02/03 10:47:51;;;;;;;10.82;2.28;;;;;;;8.86;100.00;102351.97;5070759;28;20048;-53
2023/02/03 10:50:23;;;;;;;11.57;2.00;;;;;;;8.93;100.00;102357.81;5071248;28;20475;-52
2023/02/03 10:52:51;;;;;;;12.02;2.35;;;;;;;8.95;100.00;102356.03;5055139;28;20060;-52
2023/02/03 10:55:31;;;;;;;8.50;2.30;;;;;;;8.98;100.00;102358.53;5074955;28;20123;-51
2023/02/03 10:58:11;;;;;;;11.38;2.85;;;;;;;8.96;100.00;102340.22;5075121;28;20055;-53
2023/02/03 11:00:40;;;;;;;9.40;2.28;;;;;;;8.96;100.00;102342.00;5056909;28;20167;-51
2023/02/03 11:03:21;;;;;;;10.60;2.33;;;;;;;8.98;100.00;102331.44;5074484;28;20048;-49
2023/02/03 11:06:04;;;;;;;11.13;2.70;;;;;;;9.06;100.00;102345.16;5074691;28;20557;-51
2023/02/03 11:08:34;;;;;;;8.27;2.35;;;;;;;9.05;100.00;102335.56;5074785;28;20048;-51
2023/02/03 11:11:04;;;;;;;12.52;2.40;;;;;;;9.07;100.00;102347.72;5074821;28;20059;-51
2023/02/03 11:13:32;;;;;;;7.05;2.10;;;;;;;9.09;100.00;102347.66;5074935;28;20126;-51
2023/02/03 11:16:04;;;;;;;7.38;2.10;;;;;;;9.17;100.00;102348.25;5074613;28;20072;-50
2023/02/03 11:18:41;;;;;;;10.43;2.65;;;;;;;9.22;100.00;102356.81;5074771;28;20124;-51
2023/02/03 11:21:12;;;;;;;6.65;2.20;;;;;;;9.22;100.00;102354.19;5073688;28;20072;-52
2023/02/03 11:23:55;;;;;;;9.43;2.37;;;;;;;9.20;100.00;102348.13;5069766;28;20102;-50
2023/02/03 11:26:27;;;;;;;9.43;2.65;;;;;;;9.23;100.00;102355.94;5073101;28;20048;-51
2023/02/03 11:28:58;;;;;;;11.43;3.10;;;;;;;9.24;100.00;102352.41;5074533;28;20126;-51
2023/02/03 11:31:31;;;;;;;8.52;2.50;;;;;;;9.32;100.00;102374.88;5073284;28;20143;-51
2023/02/03 11:34:02;;;;;;;8.95;2.92;;;;;;;9.32;100.00;102369.63;5071119;28;20407;-51
2023/02/03 11:36:32;;;;;;;11.35;2.38;;;;;;;9.33;100.00;102356.44;5072183;28;20055;-61
2023/02/03 11:39:28;;;;;;;11.25;2.47;;;;;;;9.36;100.00;102363.38;5074476;28;20491;-61